sensor_id;sensor_type;location;lat;lon;timestamp;P1;durP1;ratioP1;P2;durP2;ratioP2
43817;SDS011;29868;47.360;18.984;2023-05-23T00:02:04;17.65;;;12.55;;
43817;SDS011;29868;47.360;18.984;2023-05-23T00:04:32;16.50;;;11.73;;
43817;SDS011;29868;47.360;18.984;2023-05-23T00:06:59;15.82;;;12.00;;
43817;SDS011;29868;47.360;18.984;2023-05-23T00:09:25;17.30;;;11.65;;
43817;SDS011;29868;47.360;18.984;2023-05-23T00:11:50;17.38;;;12.05;;
43817;SDS011;29868;47.360;18.984;2023-05-23T00:14:16;17.98;;;11.90;;
43817;SDS011;29868;47.360;18.984;2023-05-23T00:16:42;17.95;;;12.13;;
43817;SDS011;29868;47.360;18.984;2023-05-23T00:19:12;15.13;;;11.40;;
43817;SDS011;29868;47.360;18.984;2023-05-23T00:21:41;13.65;;;11.02;;
43817;SDS011;29868;47.360;18.984;2023-05-23T00:24:07;16.42;;;12.48;;
43817;SDS011;29868;47.360;18.984;2023-05-23T00:26:34;15.68;;;11.80;;
43817;SDS011;29868;47.360;18.984;2023-05-23T00:28:59;15.00;;;11.27;;
43817;SDS011;29868;47.360;18.984;2023-05-23T00:31:25;14.95;;;11.65;;
43817;SDS011;29868;47.360;18.984;2023-05-23T00:33:51;17.23;;;11.77;;
43817;SDS011;29868;47.360;18.984;2023-05-23T00:36:17;18.00;;;11.85;;
43817;SDS011;29868;47.360;18.984;2023-05-23T00:38:42;16.80;;;11.57;;
43817;SDS011;29868;47.360;18.984;2023-05-23T00:41:10;16.48;;;12.25;;
43817;SDS011;29868;47.360;18.984;2023-05-23T00:43:35;16.88;;;11.93;;
43817;SDS011;29868;47.360;18.984;2023-05-23T00:46:01;16.20;;;12.32;;
43817;SDS011;29868;47.360;18.984;2023-05-23T00:48:27;18.05;;;12.73;;
43817;SDS011;29868;47.360;18.984;2023-05-23T00:50:53;18.40;;;12.70;;
43817;SDS011;29868;47.360;18.984;2023-05-23T00:53:20;14.57;;;11.68;;
43817;SDS011;29868;47.360;18.984;2023-05-23T00:55:45;17.75;;;12.68;;
43817;SDS011;29868;47.360;18.984;2023-05-23T00:58:11;16.45;;;13.05;;
43817;SDS011;29868;47.360;18.984;2023-05-23T01:00:39;22.27;;;13.27;;
43817;SDS011;29868;47.360;18.984;2023-05-23T01:03:06;15.00;;;12.65;;
43817;SDS011;29868;47.360;18.984;2023-05-23T01:05:31;16.90;;;12.27;;
43817;SDS011;29868;47.360;18.984;2023-05-23T01:07:57;18.05;;;13.40;;
43817;SDS011;29868;47.360;18.984;2023-05-23T01:10:27;15.18;;;12.38;;
43817;SDS011;29868;47.360;18.984;2023-05-23T01:12:57;17.23;;;13.20;;
43817;SDS011;29868;47.360;18.984;2023-05-23T01:20:36;16.35;;;12.45;;
43817;SDS011;29868;47.360;18.984;2023-05-23T01:28:53;16.35;;;12.50;;
43817;SDS011;29868;47.360;18.984;2023-05-23T01:31:20;19.40;;;13.02;;
43817;SDS011;29868;47.360;18.984;2023-05-23T01:33:49;17.30;;;12.75;;
43817;SDS011;29868;47.360;18.984;2023-05-23T01:36:17;16.80;;;12.63;;
43817;SDS011;29868;47.360;18.984;2023-05-23T01:38:43;18.88;;;13.18;;
43817;SDS011;29868;47.360;18.984;2023-05-23T01:41:08;18.63;;;14.05;;
43817;SDS011;29868;47.360;18.984;2023-05-23T01:43:33;18.92;;;13.45;;
43817;SDS011;29868;47.360;18.984;2023-05-23T01:45:59;18.67;;;13.88;;
43817;SDS011;29868;47.360;18.984;2023-05-23T01:48:26;20.45;;;13.82;;
43817;SDS011;29868;47.360;18.984;2023-05-23T01:50:52;18.27;;;13.73;;
43817;SDS011;29868;47.360;18.984;2023-05-23T01:53:21;17.98;;;13.57;;
43817;SDS011;29868;47.360;18.984;2023-05-23T01:55:47;16.13;;;12.57;;
43817;SDS011;29868;47.360;18.984;2023-05-23T01:58:14;19.05;;;13.90;;
43817;SDS011;29868;47.360;18.984;2023-05-23T02:00:39;21.38;;;14.20;;
43817;SDS011;29868;47.360;18.984;2023-05-23T02:03:05;17.35;;;13.32;;
43817;SDS011;29868;47.360;18.984;2023-05-23T02:05:31;18.65;;;13.32;;
43817;SDS011;29868;47.360;18.984;2023-05-23T02:07:56;19.42;;;13.52;;
43817;SDS011;29868;47.360;18.984;2023-05-23T02:10:22;20.38;;;13.70;;
43817;SDS011;29868;47.360;18.984;2023-05-23T02:12:47;17.15;;;13.02;;
43817;SDS011;29868;47.360;18.984;2023-05-23T02:15:13;16.17;;;12.68;;
43817;SDS011;29868;47.360;18.984;2023-05-23T02:17:38;20.17;;;13.35;;
43817;SDS011;29868;47.360;18.984;2023-05-23T02:20:05;18.27;;;13.65;;
43817;SDS011;29868;47.360;18.984;2023-05-23T02:22:31;19.00;;;13.63;;
43817;SDS011;29868;47.360;18.984;2023-05-23T02:24:57;20.73;;;13.55;;
43817;SDS011;29868;47.360;18.984;2023-05-23T02:27:22;17.02;;;13.60;;
43817;SDS011;29868;47.360;18.984;2023-05-23T02:29:48;19.27;;;13.57;;
43817;SDS011;29868;47.360;18.984;2023-05-23T02:32:13;18.30;;;13.43;;
43817;SDS011;29868;47.360;18.984;2023-05-23T02:34:38;19.80;;;14.95;;
43817;SDS011;29868;47.360;18.984;2023-05-23T02:37:04;20.42;;;14.13;;
43817;SDS011;29868;47.360;18.984;2023-05-23T02:39:30;21.05;;;13.95;;
43817;SDS011;29868;47.360;18.984;2023-05-23T02:41:55;19.60;;;13.75;;
43817;SDS011;29868;47.360;18.984;2023-05-23T02:44:20;16.98;;;13.50;;
43817;SDS011;29868;47.360;18.984;2023-05-23T02:46:46;18.98;;;13.20;;
43817;SDS011;29868;47.360;18.984;2023-05-23T02:49:11;18.25;;;13.50;;
43817;SDS011;29868;47.360;18.984;2023-05-23T02:51:37;18.58;;;12.88;;
43817;SDS011;29868;47.360;18.984;2023-05-23T02:54:02;17.17;;;13.07;;
43817;SDS011;29868;47.360;18.984;2023-05-23T02:56:28;18.33;;;13.35;;
43817;SDS011;29868;47.360;18.984;2023-05-23T02:58:53;18.95;;;13.40;;
43817;SDS011;29868;47.360;18.984;2023-05-23T03:01:19;21.08;;;14.15;;
43817;SDS011;29868;47.360;18.984;2023-05-23T03:03:44;19.15;;;14.00;;
43817;SDS011;29868;47.360;18.984;2023-05-23T03:06:10;20.98;;;13.93;;
43817;SDS011;29868;47.360;18.984;2023-05-23T03:08:38;17.95;;;13.30;;
43817;SDS011;29868;47.360;18.984;2023-05-23T03:11:05;17.80;;;13.13;;
43817;SDS011;29868;47.360;18.984;2023-05-23T03:13:31;20.17;;;14.68;;
43817;SDS011;29868;47.360;18.984;2023-05-23T03:15:56;19.05;;;14.20;;
43817;SDS011;29868;47.360;18.984;2023-05-23T03:18:22;19.88;;;13.85;;
43817;SDS011;29868;47.360;18.984;2023-05-23T03:20:47;18.48;;;14.00;;
43817;SDS011;29868;47.360;18.984;2023-05-23T03:23:12;18.17;;;13.40;;
43817;SDS011;29868;47.360;18.984;2023-05-23T03:25:38;16.40;;;13.18;;
43817;SDS011;29868;47.360;18.984;2023-05-23T03:28:03;20.88;;;13.85;;
43817;SDS011;29868;47.360;18.984;2023-05-23T03:30:29;20.20;;;14.57;;
43817;SDS011;29868;47.360;18.984;2023-05-23T03:32:54;19.48;;;13.27;;
43817;SDS011;29868;47.360;18.984;2023-05-23T03:35:20;16.95;;;13.27;;
43817;SDS011;29868;47.360;18.984;2023-05-23T03:37:45;20.10;;;12.50;;
43817;SDS011;29868;47.360;18.984;2023-05-23T03:40:11;15.90;;;12.68;;
43817;SDS011;29868;47.360;18.984;2023-05-23T03:42:37;19.95;;;12.98;;
43817;SDS011;29868;47.360;18.984;2023-05-23T03:45:03;18.58;;;12.65;;
43817;SDS011;29868;47.360;18.984;2023-05-23T03:47:29;18.15;;;13.18;;
43817;SDS011;29868;47.360;18.984;2023-05-23T03:49:55;18.42;;;12.80;;
43817;SDS011;29868;47.360;18.984;2023-05-23T03:52:20;18.17;;;13.07;;
43817;SDS011;29868;47.360;18.984;2023-05-23T03:54:46;16.80;;;12.65;;
43817;SDS011;29868;47.360;18.984;2023-05-23T03:57:11;20.13;;;13.00;;
43817;SDS011;29868;47.360;18.984;2023-05-23T03:59:36;19.02;;;13.00;;
43817;SDS011;29868;47.360;18.984;2023-05-23T04:02:02;18.33;;;13.23;;
43817;SDS011;29868;47.360;18.984;2023-05-23T04:04:28;17.52;;;12.05;;
43817;SDS011;29868;47.360;18.984;2023-05-23T04:06:53;19.30;;;11.70;;
43817;SDS011;29868;47.360;18.984;2023-05-23T04:09:18;17.50;;;11.20;;
43817;SDS011;29868;47.360;18.984;2023-05-23T04:11:44;15.60;;;11.38;;
43817;SDS011;29868;47.360;18.984;2023-05-23T04:14:11;15.10;;;10.85;;
43817;SDS011;29868;47.360;18.984;2023-05-23T04:16:37;13.15;;;10.70;;
43817;SDS011;29868;47.360;18.984;2023-05-23T04:19:05;18.05;;;10.93;;
43817;SDS011;29868;47.360;18.984;2023-05-23T04:21:32;13.75;;;10.50;;
43817;SDS011;29868;47.360;18.984;2023-05-23T04:23:58;15.70;;;11.07;;
43817;SDS011;29868;47.360;18.984;2023-05-23T04:26:23;12.85;;;10.25;;
43817;SDS011;29868;47.360;18.984;2023-05-23T04:28:49;14.65;;;9.90;;
43817;SDS011;29868;47.360;18.984;2023-05-23T04:31:18;13.90;;;9.40;;
43817;SDS011;29868;47.360;18.984;2023-05-23T04:33:44;15.13;;;10.05;;
43817;SDS011;29868;47.360;18.984;2023-05-23T04:36:09;14.65;;;10.07;;
43817;SDS011;29868;47.360;18.984;2023-05-23T04:38:35;15.88;;;9.80;;
43817;SDS011;29868;47.360;18.984;2023-05-23T04:41:03;17.27;;;9.85;;
43817;SDS011;29868;47.360;18.984;2023-05-23T04:43:30;14.82;;;10.07;;
43817;SDS011;29868;47.360;18.984;2023-05-23T04:45:57;14.82;;;9.00;;
43817;SDS011;29868;47.360;18.984;2023-05-23T04:48:23;14.18;;;8.95;;
43817;SDS011;29868;47.360;18.984;2023-05-23T04:50:51;14.20;;;9.07;;
43817;SDS011;29868;47.360;18.984;2023-05-23T04:53:16;12.95;;;9.20;;
43817;SDS011;29868;47.360;18.984;2023-05-23T04:55:42;15.25;;;8.93;;
43817;SDS011;29868;47.360;18.984;2023-05-23T04:58:07;12.57;;;8.38;;
43817;SDS011;29868;47.360;18.984;2023-05-23T05:00:33;11.93;;;8.32;;
43817;SDS011;29868;47.360;18.984;2023-05-23T05:03:00;14.15;;;8.85;;
43817;SDS011;29868;47.360;18.984;2023-05-23T05:05:25;14.60;;;8.80;;
43817;SDS011;29868;47.360;18.984;2023-05-23T05:07:51;13.60;;;8.13;;
43817;SDS011;29868;47.360;18.984;2023-05-23T05:10:16;15.38;;;8.05;;
43817;SDS011;29868;47.360;18.984;2023-05-23T05:12:45;11.85;;;8.10;;
43817;SDS011;29868;47.360;18.984;2023-05-23T05:15:13;13.10;;;7.97;;
43817;SDS011;29868;47.360;18.984;2023-05-23T05:17:41;10.02;;;7.80;;
43817;SDS011;29868;47.360;18.984;2023-05-23T05:20:07;11.85;;;7.50;;
43817;SDS011;29868;47.360;18.984;2023-05-23T05:22:33;11.90;;;6.88;;
43817;SDS011;29868;47.360;18.984;2023-05-23T05:25:00;10.70;;;7.25;;
43817;SDS011;29868;47.360;18.984;2023-05-23T05:27:27;12.65;;;7.55;;
43817;SDS011;29868;47.360;18.984;2023-05-23T05:29:52;13.35;;;7.43;;
43817;SDS011;29868;47.360;18.984;2023-05-23T05:32:24;9.88;;;7.00;;
43817;SDS011;29868;47.360;18.984;2023-05-23T05:34:49;11.43;;;7.43;;
43817;SDS011;29868;47.360;18.984;2023-05-23T05:37:15;9.70;;;7.18;;
43817;SDS011;29868;47.360;18.984;2023-05-23T05:39:40;12.32;;;7.10;;
43817;SDS011;29868;47.360;18.984;2023-05-23T05:42:06;10.43;;;7.43;;
43817;SDS011;29868;47.360;18.984;2023-05-23T05:44:31;10.73;;;7.10;;
43817;SDS011;29868;47.360;18.984;2023-05-23T05:46:57;11.30;;;7.82;;
43817;SDS011;29868;47.360;18.984;2023-05-23T05:49:22;14.18;;;7.80;;
43817;SDS011;29868;47.360;18.984;2023-05-23T05:51:48;11.88;;;7.88;;
43817;SDS011;29868;47.360;18.984;2023-05-23T05:54:13;12.00;;;7.55;;
43817;SDS011;29868;47.360;18.984;2023-05-23T05:56:39;9.90;;;6.63;;
43817;SDS011;29868;47.360;18.984;2023-05-23T05:59:06;10.50;;;7.15;;
43817;SDS011;29868;47.360;18.984;2023-05-23T06:01:31;8.75;;;6.60;;
43817;SDS011;29868;47.360;18.984;2023-05-23T06:03:58;10.10;;;6.72;;
43817;SDS011;29868;47.360;18.984;2023-05-23T06:06:24;11.23;;;7.10;;
43817;SDS011;29868;47.360;18.984;2023-05-23T06:08:50;9.55;;;6.72;;
43817;SDS011;29868;47.360;18.984;2023-05-23T06:11:16;10.90;;;6.97;;
43817;SDS011;29868;47.360;18.984;2023-05-23T06:13:41;10.65;;;7.25;;
43817;SDS011;29868;47.360;18.984;2023-05-23T06:16:07;8.35;;;6.57;;
43817;SDS011;29868;47.360;18.984;2023-05-23T06:18:32;9.30;;;6.88;;
43817;SDS011;29868;47.360;18.984;2023-05-23T06:20:58;9.90;;;6.38;;
43817;SDS011;29868;47.360;18.984;2023-05-23T06:23:24;8.52;;;6.57;;
43817;SDS011;29868;47.360;18.984;2023-05-23T06:25:49;12.70;;;6.88;;
43817;SDS011;29868;47.360;18.984;2023-05-23T06:28:15;8.30;;;5.65;;
43817;SDS011;29868;47.360;18.984;2023-05-23T06:30:40;11.18;;;6.20;;
43817;SDS011;29868;47.360;18.984;2023-05-23T06:33:05;9.15;;;6.13;;
43817;SDS011;29868;47.360;18.984;2023-05-23T06:35:31;10.40;;;6.50;;
43817;SDS011;29868;47.360;18.984;2023-05-23T06:37:56;9.55;;;6.05;;
43817;SDS011;29868;47.360;18.984;2023-05-23T06:40:22;8.80;;;6.07;;
43817;SDS011;29868;47.360;18.984;2023-05-23T06:42:47;11.68;;;6.65;;
43817;SDS011;29868;47.360;18.984;2023-05-23T06:45:12;10.98;;;6.80;;
43817;SDS011;29868;47.360;18.984;2023-05-23T06:47:38;10.77;;;6.47;;
43817;SDS011;29868;47.360;18.984;2023-05-23T06:50:04;9.07;;;6.20;;
43817;SDS011;29868;47.360;18.984;2023-05-23T06:52:30;9.95;;;6.80;;
43817;SDS011;29868;47.360;18.984;2023-05-23T06:54:55;9.55;;;6.30;;
43817;SDS011;29868;47.360;18.984;2023-05-23T06:57:20;10.75;;;6.95;;
43817;SDS011;29868;47.360;18.984;2023-05-23T06:59:46;10.73;;;6.72;;
43817;SDS011;29868;47.360;18.984;2023-05-23T07:02:11;9.27;;;6.05;;
43817;SDS011;29868;47.360;18.984;2023-05-23T07:04:37;10.02;;;6.43;;
43817;SDS011;29868;47.360;18.984;2023-05-23T07:07:02;10.75;;;6.78;;
43817;SDS011;29868;47.360;18.984;2023-05-23T07:09:28;11.73;;;6.30;;
43817;SDS011;29868;47.360;18.984;2023-05-23T07:11:53;12.23;;;6.40;;
43817;SDS011;29868;47.360;18.984;2023-05-23T07:14:18;9.15;;;6.05;;
43817;SDS011;29868;47.360;18.984;2023-05-23T07:16:44;8.48;;;5.95;;
43817;SDS011;29868;47.360;18.984;2023-05-23T07:19:10;9.50;;;6.90;;
43817;SDS011;29868;47.360;18.984;2023-05-23T07:21:36;7.70;;;5.60;;
43817;SDS011;29868;47.360;18.984;2023-05-23T07:24:01;12.23;;;6.30;;
43817;SDS011;29868;47.360;18.984;2023-05-23T07:26:27;11.82;;;6.18;;
43817;SDS011;29868;47.360;18.984;2023-05-23T07:28:52;10.85;;;7.00;;
43817;SDS011;29868;47.360;18.984;2023-05-23T07:31:18;10.30;;;7.35;;
43817;SDS011;29868;47.360;18.984;2023-05-23T07:33:43;9.73;;;6.90;;
43817;SDS011;29868;47.360;18.984;2023-05-23T07:36:09;10.90;;;7.28;;
43817;SDS011;29868;47.360;18.984;2023-05-23T07:38:35;12.07;;;7.55;;
43817;SDS011;29868;47.360;18.984;2023-05-23T07:41:00;9.45;;;7.28;;
43817;SDS011;29868;47.360;18.984;2023-05-23T07:43:26;11.27;;;7.82;;
43817;SDS011;29868;47.360;18.984;2023-05-23T07:45:51;12.32;;;7.60;;
43817;SDS011;29868;47.360;18.984;2023-05-23T07:48:16;12.93;;;7.97;;
43817;SDS011;29868;47.360;18.984;2023-05-23T07:50:42;11.77;;;8.05;;
43817;SDS011;29868;47.360;18.984;2023-05-23T07:53:07;10.38;;;7.28;;
43817;SDS011;29868;47.360;18.984;2023-05-23T07:55:33;10.65;;;6.78;;
43817;SDS011;29868;47.360;18.984;2023-05-23T07:57:58;10.55;;;6.82;;
43817;SDS011;29868;47.360;18.984;2023-05-23T08:00:23;11.23;;;7.22;;
43817;SDS011;29868;47.360;18.984;2023-05-23T08:02:49;11.35;;;6.90;;
43817;SDS011;29868;47.360;18.984;2023-05-23T08:05:14;10.57;;;6.88;;
43817;SDS011;29868;47.360;18.984;2023-05-23T08:07:40;11.55;;;7.60;;
43817;SDS011;29868;47.360;18.984;2023-05-23T08:10:05;10.05;;;6.72;;
43817;SDS011;29868;47.360;18.984;2023-05-23T08:12:31;10.57;;;7.75;;
43817;SDS011;29868;47.360;18.984;2023-05-23T08:14:57;15.15;;;7.20;;
43817;SDS011;29868;47.360;18.984;2023-05-23T08:17:23;10.32;;;7.07;;
43817;SDS011;29868;47.360;18.984;2023-05-23T08:19:48;13.18;;;7.22;;
43817;SDS011;29868;47.360;18.984;2023-05-23T08:22:14;10.90;;;7.22;;
43817;SDS011;29868;47.360;18.984;2023-05-23T08:24:39;11.98;;;6.78;;
43817;SDS011;29868;47.360;18.984;2023-05-23T08:27:05;10.43;;;6.95;;
43817;SDS011;29868;47.360;18.984;2023-05-23T08:29:31;9.55;;;6.28;;
43817;SDS011;29868;47.360;18.984;2023-05-23T08:31:59;8.52;;;6.65;;
43817;SDS011;29868;47.360;18.984;2023-05-23T08:34:24;12.30;;;7.93;;
43817;SDS011;29868;47.360;18.984;2023-05-23T08:36:50;13.00;;;6.72;;
43817;SDS011;29868;47.360;18.984;2023-05-23T08:39:16;11.23;;;6.63;;
43817;SDS011;29868;47.360;18.984;2023-05-23T08:41:42;10.90;;;6.85;;
43817;SDS011;29868;47.360;18.984;2023-05-23T08:44:08;10.02;;;5.70;;
43817;SDS011;29868;47.360;18.984;2023-05-23T08:46:33;9.45;;;6.25;;
43817;SDS011;29868;47.360;18.984;2023-05-23T08:49:04;10.80;;;6.70;;
43817;SDS011;29868;47.360;18.984;2023-05-23T08:51:31;10.00;;;6.38;;
43817;SDS011;29868;47.360;18.984;2023-05-23T08:54:01;11.48;;;6.10;;
43817;SDS011;29868;47.360;18.984;2023-05-23T08:56:27;9.32;;;6.40;;
43817;SDS011;29868;47.360;18.984;2023-05-23T08:58:52;9.48;;;6.15;;
43817;SDS011;29868;47.360;18.984;2023-05-23T09:01:19;8.75;;;5.82;;
43817;SDS011;29868;47.360;18.984;2023-05-23T09:03:45;7.28;;;5.63;;
43817;SDS011;29868;47.360;18.984;2023-05-23T09:06:11;8.05;;;6.55;;
43817;SDS011;29868;47.360;18.984;2023-05-23T09:08:37;9.00;;;5.88;;
43817;SDS011;29868;47.360;18.984;2023-05-23T09:11:03;8.02;;;5.40;;
43817;SDS011;29868;47.360;18.984;2023-05-23T09:13:30;8.57;;;5.63;;
43817;SDS011;29868;47.360;18.984;2023-05-23T09:16:02;9.95;;;5.82;;
43817;SDS011;29868;47.360;18.984;2023-05-23T09:18:36;6.13;;;4.85;;
43817;SDS011;29868;47.360;18.984;2023-05-23T09:21:07;7.47;;;5.55;;
43817;SDS011;29868;47.360;18.984;2023-05-23T09:23:37;9.55;;;5.50;;
43817;SDS011;29868;47.360;18.984;2023-05-23T09:26:13;9.55;;;5.88;;
43817;SDS011;29868;47.360;18.984;2023-05-23T09:28:41;9.02;;;6.03;;
43817;SDS011;29868;47.360;18.984;2023-05-23T09:31:07;11.25;;;5.55;;
43817;SDS011;29868;47.360;18.984;2023-05-23T09:36:00;8.98;;;5.20;;
43817;SDS011;29868;47.360;18.984;2023-05-23T09:38:27;9.07;;;5.85;;
43817;SDS011;29868;47.360;18.984;2023-05-23T09:40:53;6.78;;;5.80;;
43817;SDS011;29868;47.360;18.984;2023-05-23T09:43:20;9.43;;;6.22;;
43817;SDS011;29868;47.360;18.984;2023-05-23T09:45:46;9.80;;;5.95;;
43817;SDS011;29868;47.360;18.984;2023-05-23T09:48:11;8.30;;;5.80;;
43817;SDS011;29868;47.360;18.984;2023-05-23T09:50:38;8.77;;;5.90;;
43817;SDS011;29868;47.360;18.984;2023-05-23T09:53:03;8.23;;;5.95;;
43817;SDS011;29868;47.360;18.984;2023-05-23T09:55:29;8.05;;;5.65;;
43817;SDS011;29868;47.360;18.984;2023-05-23T09:57:54;7.05;;;5.93;;
43817;SDS011;29868;47.360;18.984;2023-05-23T10:00:23;8.73;;;6.45;;
43817;SDS011;29868;47.360;18.984;2023-05-23T10:05:32;13.15;;;5.80;;
43817;SDS011;29868;47.360;18.984;2023-05-23T10:08:00;7.47;;;5.50;;
43817;SDS011;29868;47.360;18.984;2023-05-23T10:10:32;8.70;;;5.68;;
43817;SDS011;29868;47.360;18.984;2023-05-23T10:13:02;7.90;;;5.70;;
43817;SDS011;29868;47.360;18.984;2023-05-23T10:15:32;9.45;;;5.78;;
43817;SDS011;29868;47.360;18.984;2023-05-23T10:20:46;8.43;;;5.70;;
43817;SDS011;29868;47.360;18.984;2023-05-23T10:23:13;6.55;;;5.32;;
43817;SDS011;29868;47.360;18.984;2023-05-23T10:25:40;9.35;;;5.80;;
43817;SDS011;29868;47.360;18.984;2023-05-23T10:28:08;7.13;;;5.40;;
43817;SDS011;29868;47.360;18.984;2023-05-23T10:30:33;8.45;;;6.00;;
43817;SDS011;29868;47.360;18.984;2023-05-23T10:32:59;6.28;;;5.30;;
43817;SDS011;29868;47.360;18.984;2023-05-23T10:40:52;6.93;;;5.32;;
43817;SDS011;29868;47.360;18.984;2023-05-23T10:49:16;8.82;;;4.80;;
43817;SDS011;29868;47.360;18.984;2023-05-23T10:51:43;7.15;;;4.70;;
43817;SDS011;29868;47.360;18.984;2023-05-23T10:54:12;6.05;;;4.40;;
43817;SDS011;29868;47.360;18.984;2023-05-23T10:56:38;6.60;;;4.43;;
43817;SDS011;29868;47.360;18.984;2023-05-23T10:59:04;7.90;;;5.22;;
43817;SDS011;29868;47.360;18.984;2023-05-23T11:01:30;7.47;;;5.00;;
43817;SDS011;29868;47.360;18.984;2023-05-23T11:03:55;6.82;;;5.15;;
43817;SDS011;29868;47.360;18.984;2023-05-23T11:06:37;8.15;;;5.18;;
43817;SDS011;29868;47.360;18.984;2023-05-23T11:09:10;8.45;;;5.72;;
43817;SDS011;29868;47.360;18.984;2023-05-23T11:19:36;7.25;;;5.47;;
43817;SDS011;29868;47.360;18.984;2023-05-23T11:22:02;7.38;;;5.47;;
43817;SDS011;29868;47.360;18.984;2023-05-23T11:27:36;7.53;;;5.70;;
43817;SDS011;29868;47.360;18.984;2023-05-23T11:30:05;7.05;;;5.03;;
43817;SDS011;29868;47.360;18.984;2023-05-23T11:32:32;9.27;;;6.00;;
43817;SDS011;29868;47.360;18.984;2023-05-23T11:34:58;8.82;;;6.05;;
43817;SDS011;29868;47.360;18.984;2023-05-23T11:37:25;8.90;;;6.03;;
43817;SDS011;29868;47.360;18.984;2023-05-23T11:39:51;6.90;;;5.18;;
43817;SDS011;29868;47.360;18.984;2023-05-23T11:42:17;6.72;;;5.43;;
43817;SDS011;29868;47.360;18.984;2023-05-23T11:44:42;7.57;;;5.22;;
43817;SDS011;29868;47.360;18.984;2023-05-23T11:47:10;6.22;;;5.15;;
43817;SDS011;29868;47.360;18.984;2023-05-23T11:49:36;7.35;;;5.18;;
43817;SDS011;29868;47.360;18.984;2023-05-23T11:52:02;7.30;;;5.40;;
43817;SDS011;29868;47.360;18.984;2023-05-23T11:54:29;6.10;;;4.35;;
43817;SDS011;29868;47.360;18.984;2023-05-23T11:56:54;6.80;;;4.50;;
43817;SDS011;29868;47.360;18.984;2023-05-23T11:59:21;6.80;;;4.53;;
43817;SDS011;29868;47.360;18.984;2023-05-23T12:01:47;5.90;;;4.90;;
43817;SDS011;29868;47.360;18.984;2023-05-23T12:04:16;6.90;;;4.93;;
43817;SDS011;29868;47.360;18.984;2023-05-23T12:06:41;6.18;;;5.05;;
43817;SDS011;29868;47.360;18.984;2023-05-23T12:09:10;6.80;;;4.78;;
43817;SDS011;29868;47.360;18.984;2023-05-23T12:11:37;7.07;;;4.82;;
43817;SDS011;29868;47.360;18.984;2023-05-23T12:14:03;8.20;;;5.30;;
43817;SDS011;29868;47.360;18.984;2023-05-23T12:16:33;6.60;;;4.85;;
43817;SDS011;29868;47.360;18.984;2023-05-23T12:19:02;6.75;;;5.00;;
43817;SDS011;29868;47.360;18.984;2023-05-23T12:21:40;6.32;;;4.82;;
43817;SDS011;29868;47.360;18.984;2023-05-23T12:24:13;9.40;;;4.72;;
43817;SDS011;29868;47.360;18.984;2023-05-23T12:26:52;6.88;;;5.00;;
43817;SDS011;29868;47.360;18.984;2023-05-23T12:29:32;7.80;;;5.30;;
43817;SDS011;29868;47.360;18.984;2023-05-23T12:31:59;7.43;;;4.80;;
43817;SDS011;29868;47.360;18.984;2023-05-23T12:34:28;6.47;;;4.80;;
43817;SDS011;29868;47.360;18.984;2023-05-23T12:36:57;7.90;;;4.93;;
43817;SDS011;29868;47.360;18.984;2023-05-23T12:39:27;6.63;;;4.90;;
43817;SDS011;29868;47.360;18.984;2023-05-23T12:42:07;7.72;;;4.63;;
43817;SDS011;29868;47.360;18.984;2023-05-23T12:44:33;6.60;;;4.70;;
43817;SDS011;29868;47.360;18.984;2023-05-23T12:47:00;5.60;;;4.53;;
43817;SDS011;29868;47.360;18.984;2023-05-23T12:49:26;6.85;;;4.90;;
43817;SDS011;29868;47.360;18.984;2023-05-23T12:51:52;7.88;;;4.68;;
43817;SDS011;29868;47.360;18.984;2023-05-23T12:54:17;8.00;;;4.97;;
43817;SDS011;29868;47.360;18.984;2023-05-23T12:56:43;6.30;;;4.70;;
43817;SDS011;29868;47.360;18.984;2023-05-23T12:59:08;7.75;;;4.72;;
43817;SDS011;29868;47.360;18.984;2023-05-23T13:01:34;8.75;;;4.60;;
43817;SDS011;29868;47.360;18.984;2023-05-23T13:04:00;9.02;;;4.63;;
43817;SDS011;29868;47.360;18.984;2023-05-23T13:06:26;5.78;;;4.57;;
43817;SDS011;29868;47.360;18.984;2023-05-23T13:08:52;6.78;;;4.70;;
43817;SDS011;29868;47.360;18.984;2023-05-23T13:11:19;6.03;;;4.10;;
43817;SDS011;29868;47.360;18.984;2023-05-23T13:13:46;6.50;;;4.32;;
43817;SDS011;29868;47.360;18.984;2023-05-23T13:16:12;5.00;;;3.90;;
43817;SDS011;29868;47.360;18.984;2023-05-23T13:18:37;6.30;;;4.10;;
43817;SDS011;29868;47.360;18.984;2023-05-23T13:21:03;5.80;;;3.92;;
43817;SDS011;29868;47.360;18.984;2023-05-23T13:23:28;6.50;;;3.60;;
43817;SDS011;29868;47.360;18.984;2023-05-23T13:25:54;6.30;;;4.20;;
43817;SDS011;29868;47.360;18.984;2023-05-23T13:28:22;5.85;;;4.28;;
43817;SDS011;29868;47.360;18.984;2023-05-23T13:30:48;5.15;;;3.90;;
43817;SDS011;29868;47.360;18.984;2023-05-23T13:33:14;5.95;;;4.18;;
43817;SDS011;29868;47.360;18.984;2023-05-23T13:35:39;5.63;;;4.07;;
43817;SDS011;29868;47.360;18.984;2023-05-23T13:38:05;6.40;;;3.80;;
43817;SDS011;29868;47.360;18.984;2023-05-23T13:40:30;7.53;;;4.20;;
43817;SDS011;29868;47.360;18.984;2023-05-23T13:42:55;5.15;;;3.50;;
43817;SDS011;29868;47.360;18.984;2023-05-23T13:45:21;5.13;;;4.18;;
43817;SDS011;29868;47.360;18.984;2023-05-23T13:47:47;6.10;;;3.83;;
43817;SDS011;29868;47.360;18.984;2023-05-23T13:50:12;7.32;;;3.65;;
43817;SDS011;29868;47.360;18.984;2023-05-23T13:52:38;6.80;;;4.10;;
43817;SDS011;29868;47.360;18.984;2023-05-23T13:55:04;6.45;;;4.20;;
43817;SDS011;29868;47.360;18.984;2023-05-23T13:57:30;6.07;;;3.85;;
43817;SDS011;29868;47.360;18.984;2023-05-23T13:59:55;7.05;;;4.05;;
43817;SDS011;29868;47.360;18.984;2023-05-23T14:02:21;7.82;;;3.90;;
43817;SDS011;29868;47.360;18.984;2023-05-23T14:04:49;6.32;;;4.05;;
43817;SDS011;29868;47.360;18.984;2023-05-23T14:07:16;6.03;;;4.10;;
43817;SDS011;29868;47.360;18.984;2023-05-23T14:09:42;6.50;;;3.63;;
43817;SDS011;29868;47.360;18.984;2023-05-23T14:12:07;6.15;;;3.80;;
43817;SDS011;29868;47.360;18.984;2023-05-23T14:14:33;5.07;;;3.50;;
43817;SDS011;29868;47.360;18.984;2023-05-23T14:16:58;4.95;;;4.07;;
43817;SDS011;29868;47.360;18.984;2023-05-23T14:19:24;7.82;;;4.10;;
43817;SDS011;29868;47.360;18.984;2023-05-23T14:21:49;5.97;;;3.97;;
43817;SDS011;29868;47.360;18.984;2023-05-23T14:24:15;4.95;;;4.03;;
43817;SDS011;29868;47.360;18.984;2023-05-23T14:26:40;7.13;;;3.60;;
43817;SDS011;29868;47.360;18.984;2023-05-23T14:29:06;5.30;;;4.10;;
43817;SDS011;29868;47.360;18.984;2023-05-23T14:31:31;6.68;;;3.75;;
43817;SDS011;29868;47.360;18.984;2023-05-23T14:33:57;6.95;;;3.90;;
43817;SDS011;29868;47.360;18.984;2023-05-23T14:36:23;6.47;;;3.53;;
43817;SDS011;29868;47.360;18.984;2023-05-23T14:38:50;5.55;;;3.72;;
43817;SDS011;29868;47.360;18.984;2023-05-23T14:41:15;5.80;;;3.83;;
43817;SDS011;29868;47.360;18.984;2023-05-23T14:43:41;4.75;;;3.90;;
43817;SDS011;29868;47.360;18.984;2023-05-23T14:46:07;4.75;;;4.00;;
43817;SDS011;29868;47.360;18.984;2023-05-23T14:48:33;5.47;;;3.80;;
43817;SDS011;29868;47.360;18.984;2023-05-23T14:50:58;5.70;;;4.05;;
43817;SDS011;29868;47.360;18.984;2023-05-23T14:53:26;5.55;;;3.97;;
43817;SDS011;29868;47.360;18.984;2023-05-23T14:55:52;5.20;;;3.97;;
43817;SDS011;29868;47.360;18.984;2023-05-23T14:58:17;5.53;;;3.85;;
43817;SDS011;29868;47.360;18.984;2023-05-23T15:00:43;5.45;;;3.78;;